Time;durP1;ratioP1;P1;durP2;ratioP2;P2;SDS_P1;SDS_P2;PMS_P1;PMS_P2;Temp;Humidity;BMP_temperature;BMP_pressure;BME280_temperature;BME280_humidity;BME280_pressure;Samples;Min_cycle;Max_cycle;Signal;HPM_P1;HPM_P2
2022/09/20 04:03:55;;;;;;;6.25;3.05;;;10.30;99.90;;;;;;6257424;22;20215;-68
2022/09/20 04:06:36;;;;;;;2.50;2.25;;;10.30;99.90;;;;;;6246383;23;20155;-65
2022/09/20 04:09:20;;;;;;;3.40;3.08;;;10.30;99.90;;;;;;6220113;23;20144;-65
2022/09/20 04:11:58;;;;;;;2.85;2.33;;;10.40;99.90;;;;;;6246566;23;20243;-65
2022/09/20 04:15:02;;;;;;;2.85;2.25;;;10.40;99.90;;;;;;6229632;23;20188;-65
2022/09/20 04:17:48;;;;;;;2.92;2.35;;;10.40;99.90;;;;;;6216288;23;20631;-65
2022/09/20 04:20:22;;;;;;;2.45;2.25;;;10.50;99.90;;;;;;6216633;23;20139;-64
2022/09/20 04:22:53;;;;;;;3.13;2.30;;;10.40;99.90;;;;;;6215542;23;20129;-64
2022/09/20 04:25:22;;;;;;;1.90;1.80;;;10.50;99.90;;;;;;6216516;23;20173;-65
2022/09/20 04:27:59;;;;;;;2.95;2.10;;;10.50;99.90;;;;;;6216402;23;20153;-64
2022/09/20 04:30:29;;;;;;;2.42;2.05;;;10.50;99.90;;;;;;6189890;23;20196;-65
2022/09/20 04:33:02;;;;;;;9.05;2.15;;;10.50;99.90;;;;;;6215044;23;20126;-65
2022/09/20 04:38:21;;;;;;;2.05;1.95;;;10.50;99.90;;;;;;6216245;23;20224;-66
2022/09/20 04:40:59;;;;;;;1.33;1.23;;;10.50;99.90;;;;;;6215813;23;20142;-65
2022/09/20 04:43:34;;;;;;;5.68;2.17;;;10.50;99.90;;;;;;6215713;23;20137;-65
2022/09/20 04:46:26;;;;;;;2.75;1.60;;;10.50;99.90;;;;;;6216191;23;20145;-66
2022/09/20 04:49:35;;;;;;;1.70;1.60;;;10.40;99.90;;;;;;6214453;23;20483;-65
2022/09/20 04:52:23;;;;;;;2.60;1.95;;;10.40;99.90;;;;;;6216111;23;20137;-67
2022/09/20 04:55:08;;;;;;;3.80;1.40;;;10.30;99.90;;;;;;6215459;23;20170;-66
2022/09/20 04:58:11;;;;;;;3.28;1.67;;;10.30;99.90;;;;;;6215958;23;20524;-67
2022/09/20 05:01:15;;;;;;;2.38;2.28;;;10.30;99.90;;;;;;6216091;23;20141;-66
2022/09/20 05:03:59;;;;;;;2.55;1.52;;;10.30;99.90;;;;;;6215337;23;20243;-67
2022/09/20 05:07:06;;;;;;;5.53;2.13;;;10.30;99.90;;;;;;6189658;23;20141;-66
2022/09/20 05:09:34;;;;;;;2.15;1.83;;;10.30;99.90;;;;;;6215506;23;20180;-68
2022/09/20 05:12:17;;;;;;;2.22;2.00;;;10.30;99.90;;;;;;6188821;23;20215;-69
2022/09/20 05:15:00;;;;;;;5.07;2.33;;;10.20;99.90;;;;;;6215349;23;20165;-70
2022/09/20 05:17:52;;;;;;;2.08;1.88;;;10.20;99.90;;;;;;6215576;23;20139;-68
2022/09/20 05:20:40;;;;;;;6.07;1.60;;;10.20;99.90;;;;;;6215698;23;20145;-68
2022/09/20 05:23:14;;;;;;;1.30;1.30;;;10.20;99.90;;;;;;6214917;23;20146;-69
2022/09/20 05:25:45;;;;;;;2.03;1.80;;;10.20;99.90;;;;;;6189204;23;20634;-68
2022/09/20 05:28:27;;;;;;;2.38;2.10;;;10.10;99.90;;;;;;6216265;23;20138;-68
2022/09/20 05:31:36;;;;;;;4.80;2.35;;;10.10;99.90;;;;;;6215582;23;20133;-68
2022/09/20 05:34:32;;;;;;;5.60;4.15;;;10.10;99.90;;;;;;6215096;23;20172;-72
2022/09/20 05:37:25;;;;;;;3.92;2.80;;;10.10;99.90;;;;;;6215439;23;20133;-71
2022/09/20 05:40:29;;;;;;;4.85;2.72;;;10.10;99.90;;;;;;6215665;23;20161;-70
2022/09/20 05:43:25;;;;;;;2.25;2.15;;;10.10;99.90;;;;;;6215296;23;20443;-69
2022/09/20 05:46:12;;;;;;;6.13;2.75;;;10.10;99.90;;;;;;6215674;23;20140;-70
2022/09/20 05:48:43;;;;;;;1.85;1.75;;;10.20;99.90;;;;;;6215466;23;20212;-72
2022/09/20 05:51:41;;;;;;;2.75;2.65;;;10.20;99.90;;;;;;6215439;23;20154;-71
2022/09/20 05:54:25;;;;;;;2.03;1.92;;;10.30;99.90;;;;;;6214752;23;20726;-70
2022/09/20 05:57:14;;;;;;;5.95;2.35;;;10.40;99.90;;;;;;6215406;23;20138;-71
2022/09/20 06:00:06;;;;;;;2.60;2.40;;;10.40;99.90;;;;;;6215565;23;20297;-69
2022/09/20 06:02:50;;;;;;;1.77;1.67;;;10.50;99.90;;;;;;6215115;23;20138;-69
2022/09/20 06:05:18;;;;;;;2.50;2.30;;;10.60;99.90;;;;;;6232289;23;20181;-70
2022/09/20 06:07:52;;;;;;;2.60;2.40;;;10.60;99.90;;;;;;6245976;23;20145;-70
2022/09/20 06:10:31;;;;;;;2.35;1.50;;;10.70;99.90;;;;;;6244959;23;20182;-71
2022/09/20 06:13:19;;;;;;;4.38;2.90;;;10.70;99.90;;;;;;6244574;23;20129;-69
2022/09/20 06:15:49;;;;;;;4.40;2.38;;;10.80;99.90;;;;;;6245811;23;20125;-71
2022/09/20 06:18:15;;;;;;;2.60;2.15;;;10.80;99.90;;;;;;6245311;23;20207;-71
2022/09/20 06:21:04;;;;;;;5.10;2.20;;;11.00;99.90;;;;;;6245787;23;20145;-71
2022/09/20 06:23:31;;;;;;;2.85;2.38;;;11.10;99.90;;;;;;6244725;22;20161;-70
2022/09/20 06:26:20;;;;;;;3.07;2.40;;;11.20;99.90;;;;;;6245441;23;20160;-72
2022/09/20 06:28:50;;;;;;;5.70;1.93;;;11.30;99.90;;;;;;6245752;23;20406;-70
2022/09/20 06:31:17;;;;;;;2.10;2.00;;;11.40;99.90;;;;;;6245425;23;20345;-70
2022/09/20 06:33:56;;;;;;;2.92;1.70;;;11.50;99.90;;;;;;6245206;22;20367;-70
2022/09/20 06:42:43;;;;;;;5.00;1.97;;;12.00;99.90;;;;;;6245305;23;20383;-68
2022/09/20 06:45:09;;;;;;;2.73;1.70;;;12.20;99.90;;;;;;6246154;22;20483;-68
2022/09/20 06:47:35;;;;;;;2.77;2.50;;;12.30;99.90;;;;;;6247498;23;20367;-68
2022/09/20 06:50:01;;;;;;;2.50;2.20;;;12.40;99.90;;;;;;6247507;23;20374;-68
2022/09/20 06:52:27;;;;;;;2.00;1.90;;;12.40;99.90;;;;;;6247046;23;20371;-72
2022/09/20 06:54:54;;;;;;;1.90;1.80;;;12.30;99.90;;;;;;6247360;22;20178;-69
2022/09/20 06:57:34;;;;;;;3.13;2.00;;;12.20;99.90;;;;;;6247577;23;20380;-67
2022/09/20 06:59:59;;;;;;;2.80;2.00;;;12.10;99.90;;;;;;6247295;23;20404;-67
2022/09/20 07:02:26;;;;;;;2.83;2.33;;;12.10;99.90;;;;;;6247830;23;20377;-71
2022/09/20 07:04:54;;;;;;;3.13;2.53;;;12.10;99.90;;;;;;6246921;22;20461;-66
2022/09/20 07:07:20;;;;;;;2.47;2.20;;;12.10;99.90;;;;;;6247811;23;20380;-67
2022/09/20 07:09:46;;;;;;;1.97;1.87;;;12.10;99.90;;;;;;6247373;23;20752;-67
2022/09/20 07:12:12;;;;;;;1.90;1.80;;;12.20;99.90;;;;;;6247407;23;20226;-66
2022/09/20 07:14:38;;;;;;;3.33;2.20;;;12.50;99.90;;;;;;6246769;22;20396;-66
2022/09/20 07:17:05;;;;;;;2.17;2.07;;;12.80;99.90;;;;;;6247412;23;20181;-68
2022/09/20 07:19:31;;;;;;;9.10;4.13;;;13.10;99.90;;;;;;6247317;23;20713;-67
2022/09/20 07:21:56;;;;;;;2.30;2.10;;;13.30;99.90;;;;;;6247507;23;20375;-66
2022/09/20 07:24:22;;;;;;;2.20;2.00;;;13.30;99.90;;;;;;6246792;22;20597;-66
2022/09/20 07:26:59;;;;;;;2.17;1.60;;;13.40;99.90;;;;;;6247357;23;20184;-66
2022/09/20 07:29:26;;;;;;;3.00;1.77;;;13.50;99.90;;;;;;6247265;23;20168;-67
2022/09/20 07:31:52;;;;;;;11.60;2.70;;;13.50;99.90;;;;;;6247080;23;20393;-67
2022/09/20 07:34:19;;;;;;;4.63;1.70;;;13.60;99.90;;;;;;6246642;22;20370;-67
2022/09/20 07:36:45;;;;;;;2.00;1.80;;;13.80;99.90;;;;;;6247240;23;20453;-67
2022/09/20 07:39:11;;;;;;;5.20;1.73;;;14.00;99.90;;;;;;6246926;23;20407;-65
2022/09/20 07:41:36;;;;;;;3.27;2.07;;;14.20;99.90;;;;;;6247221;23;20351;-65
2022/09/20 07:44:20;;;;;;;4.77;2.30;;;14.60;99.90;;;;;;6246533;22;20203;-67
2022/09/20 07:46:49;;;;;;;3.10;2.80;;;15.20;99.90;;;;;;6247118;23;20212;-64
2022/09/20 07:49:16;;;;;;;3.40;2.53;;;16.40;99.90;;;;;;6246991;23;20339;-64
2022/09/20 07:51:41;;;;;;;3.33;2.53;;;17.60;99.90;;;;;;6247108;23;20346;-65
2022/09/20 07:54:07;;;;;;;2.93;2.73;;;18.50;99.90;;;;;;6246589;22;20417;-65
2022/09/20 07:56:33;;;;;;;2.10;1.90;;;19.10;99.90;;;;;;6247120;23;20152;-64
2022/09/20 07:58:59;;;;;;;2.57;1.40;;;19.80;99.20;;;;;;6246827;23;20390;-64
2022/09/20 08:01:24;;;;;;;2.30;1.77;;;19.80;98.40;;;;;;6247180;23;20376;-66
2022/09/20 08:03:50;;;;;;;3.50;2.03;;;19.70;96.00;;;;;;6246653;22;20168;-65
2022/09/20 08:06:17;;;;;;;1.53;1.43;;;18.90;96.30;;;;;;6247065;23;20232;-65
2022/09/20 08:08:44;;;;;;;1.93;1.73;;;18.40;99.20;;;;;;6247083;23;20369;-68
2022/09/20 08:11:13;;;;;;;2.43;1.57;;;19.00;99.30;;;;;;6246779;23;20376;-66
2022/09/20 08:13:41;;;;;;;2.87;2.10;;;19.90;96.80;;;;;;6245755;22;20406;-66
2022/09/20 08:16:12;;;;;;;2.23;2.03;;;21.10;95.00;;;;;;6246937;23;20378;-66
2022/09/20 08:18:39;;;;;;;2.63;1.40;;;21.90;93.00;;;;;;6246510;23;20398;-66
2022/09/20 08:21:10;;;;;;;1.80;1.60;;;22.10;92.70;;;;;;6246841;23;20376;-66
2022/09/20 08:23:37;;;;;;;1.83;1.60;;;22.80;91.90;;;;;;6246095;22;20384;-67
2022/09/20 08:26:04;;;;;;;2.77;1.60;;;23.50;90.60;;;;;;6246729;23;20405;-68
2022/09/20 08:28:30;;;;;;;3.90;1.87;;;23.70;89.40;;;;;;6246411;23;20750;-68
2022/09/20 08:31:09;;;;;;;2.00;1.80;;;24.30;87.90;;;;;;6246740;23;20439;-68
2022/09/20 08:33:38;;;;;;;1.80;1.60;;;24.50;86.90;;;;;;6246072;22;20168;-68
2022/09/20 08:36:05;;;;;;;3.90;1.67;;;23.50;83.40;;;;;;6246319;23;20430;-66
2022/09/20 08:38:32;;;;;;;2.83;1.70;;;22.40;86.30;;;;;;6245928;23;20381;-67
2022/09/20 08:41:19;;;;;;;4.93;2.03;;;21.20;87.60;;;;;;6246838;23;20411;-67
2022/09/20 08:43:59;;;;;;;2.80;1.33;;;19.90;91.30;;;;;;6246609;22;20359;-67
2022/09/20 08:46:38;;;;;;;1.50;1.40;;;19.60;93.30;;;;;;6247087;23;20359;-67
2022/09/20 08:49:07;;;;;;;4.00;1.77;;;19.90;91.10;;;;;;6246784;23;20402;-67
2022/09/20 08:51:37;;;;;;;3.57;1.53;;;20.60;91.40;;;;;;6245787;23;20679;-67
2022/09/20 08:54:06;;;;;;;2.20;1.50;;;21.40;90.40;;;;;;6245944;22;20720;-68
2022/09/20 08:56:35;;;;;;;3.13;1.30;;;22.40;86.60;;;;;;6246591;23;20403;-68
2022/09/20 08:59:02;;;;;;;4.70;1.07;;;22.90;84.10;;;;;;6246354;23;20400;-67
2022/09/20 09:01:30;;;;;;;0.90;0.90;;;23.40;80.90;;;;;;6246620;23;20351;-67
2022/09/20 09:04:22;;;;;;;1.90;1.20;;;22.80;79.60;;;;;;6245720;22;20390;-67
2022/09/20 09:06:51;;;;;;;3.73;1.20;;;21.60;80.40;;;;;;6246619;23;20426;-66
2022/09/20 09:09:23;;;;;;;1.90;1.30;;;20.40;83.40;;;;;;6245809;23;20835;-66
2022/09/20 09:11:51;;;;;;;3.00;1.83;;;19.40;87.00;;;;;;6245563;23;20688;-66
2022/09/20 09:14:50;;;;;;;1.73;0.97;;;18.80;89.00;;;;;;6245821;22;20374;-66
2022/09/20 09:17:18;;;;;;;0.80;0.80;;;18.00;89.40;;;;;;6246583;23;20357;-66
2022/09/20 09:19:52;;;;;;;3.40;1.23;;;17.30;90.60;;;;;;6246118;23;20413;-67
2022/09/20 09:22:24;;;;;;;1.00;1.00;;;16.90;92.40;;;;;;6246225;23;20326;-65
2022/09/20 09:25:15;;;;;;;2.43;1.00;;;16.70;92.20;;;;;;6246242;22;20705;-65
2022/09/20 09:28:07;;;;;;;3.00;1.43;;;16.90;93.80;;;;;;6246069;23;20353;-67
2022/09/20 09:30:38;;;;;;;2.07;1.30;;;16.90;93.90;;;;;;6245775;23;20365;-66
2022/09/20 09:33:27;;;;;;;1.37;1.27;;;16.70;93.00;;;;;;6245716;23;20832;-67
2022/09/20 09:36:13;;;;;;;3.07;1.07;;;16.50;92.80;;;;;;6245676;23;20361;-66
2022/09/20 09:38:43;;;;;;;1.90;1.10;;;16.30;93.50;;;;;;6246063;23;20422;-66
2022/09/20 09:41:32;;;;;;;0.80;0.80;;;16.40;93.90;;;;;;6245849;23;20632;-66
2022/09/20 09:44:08;;;;;;;7.60;1.53;;;16.40;94.60;;;;;;6245591;22;20785;-66
2022/09/20 09:46:35;;;;;;;1.43;1.13;;;16.40;94.80;;;;;;6246263;23;20351;-65
2022/09/20 09:49:06;;;;;;;1.37;1.27;;;16.40;95.10;;;;;;6245466;23;20405;-66
2022/09/20 09:51:32;;;;;;;0.97;0.87;;;16.30;93.90;;;;;;6245801;23;20364;-66
2022/09/20 09:53:59;;;;;;;1.93;0.83;;;16.30;93.20;;;;;;6244995;22;20362;-66
2022/09/20 09:56:56;;;;;;;1.20;0.70;;;16.40;93.20;;;;;;6246258;23;20754;-67
2022/09/20 09:59:31;;;;;;;1.30;0.83;;;16.80;93.10;;;;;;6245706;23;20407;-68
2022/09/20 10:02:00;;;;;;;1.53;0.90;;;17.10;93.40;;;;;;6246252;23;20740;-67
2022/09/20 10:04:35;;;;;;;1.53;0.90;;;17.40;92.10;;;;;;6245207;22;20393;-67
2022/09/20 10:07:12;;;;;;;2.83;1.40;;;17.80;91.30;;;;;;6245862;23;20787;-71
2022/09/20 10:10:07;;;;;;;1.50;0.70;;;18.40;90.30;;;;;;6245895;23;20332;-67
2022/09/20 10:12:48;;;;;;;1.57;0.80;;;19.50;86.30;;;;;;6245463;23;20338;-66
2022/09/20 10:15:27;;;;;;;1.83;0.90;;;20.60;84.30;;;;;;6245846;22;20362;-67
2022/09/20 10:17:56;;;;;;;2.50;1.00;;;21.70;81.60;;;;;;6246108;23;20434;-66
2022/09/20 10:20:27;;;;;;;2.77;0.80;;;22.50;81.10;;;;;;6245049;23;20376;-68
2022/09/20 10:23:04;;;;;;;1.37;0.83;;;22.40;78.50;;;;;;6245785;23;20337;-67
2022/09/20 10:26:06;;;;;;;4.20;1.10;;;22.10;79.30;;;;;;6246461;22;20384;-66
2022/09/20 10:29:07;;;;;;;1.40;0.83;;;21.40;79.00;;;;;;6246048;23;20374;-65
2022/09/20 10:31:56;;;;;;;2.57;1.30;;;20.30;74.90;;;;;;6246465;23;20708;-65
2022/09/20 10:34:40;;;;;;;0.80;0.80;;;19.60;78.40;;;;;;6245304;22;20703;-64
2022/09/20 10:37:39;;;;;;;2.60;1.10;;;19.20;78.30;;;;;;6246034;23;20338;-68
2022/09/20 10:40:13;;;;;;;1.07;0.97;;;18.90;82.10;;;;;;6198992;23;20399;-67
2022/09/20 10:45:55;;;;;;;0.80;0.80;;;17.80;84.70;;;;;;6245755;23;20339;-68
2022/09/20 10:48:31;;;;;;;1.00;0.73;;;17.50;86.20;;;;;;6245693;23;20689;-68
2022/09/20 10:50:59;;;;;;;1.30;1.00;;;17.30;89.00;;;;;;6245782;23;20330;-67
2022/09/20 10:53:42;;;;;;;1.60;0.70;;;17.30;91.20;;;;;;6244988;22;20343;-68
2022/09/20 10:56:35;;;;;;;1.00;1.00;;;17.70;91.90;;;;;;6245538;23;20813;-68
2022/09/20 10:59:07;;;;;;;2.50;0.87;;;18.30;90.40;;;;;;6245649;23;20716;-68
2022/09/20 11:01:58;;;;;;;0.70;0.70;;;18.30;87.60;;;;;;6245772;23;20352;-67
2022/09/20 11:04:51;;;;;;;3.30;1.10;;;18.20;87.00;;;;;;6244950;22;20403;-68
2022/09/20 11:07:21;;;;;;;1.67;1.03;;;17.90;88.20;;;;;;6245687;23;20339;-67
2022/09/20 11:10:06;;;;;;;4.30;0.80;;;17.60;88.50;;;;;;6246054;23;20372;-68
2022/09/20 11:12:41;;;;;;;0.90;0.73;;;17.50;90.30;;;;;;6218243;23;20437;-67
2022/09/20 11:15:49;;;;;;;0.80;0.80;;;17.30;89.50;;;;;;6245716;22;20448;-67
2022/09/20 11:18:22;;;;;;;1.47;1.00;;;17.10;89.50;;;;;;6219941;23;20507;-66
2022/09/20 11:21:06;;;;;;;12.47;7.27;;;16.80;89.70;;;;;;6245600;23;20353;-69
2022/09/20 11:24:08;;;;;;;1.43;1.33;;;16.60;89.40;;;;;;6245509;22;20362;-67
2022/09/20 11:26:40;;;;;;;0.80;0.80;;;16.50;91.30;;;;;;6245866;23;20334;-68
2022/09/20 11:29:26;;;;;;;2.70;1.10;;;16.30;91.20;;;;;;6246275;23;20457;-69
2022/09/20 11:31:56;;;;;;;1.93;0.90;;;16.30;92.50;;;;;;6246737;23;20345;-68
2022/09/20 11:34:42;;;;;;;1.60;1.30;;;16.30;93.20;;;;;;6220394;23;20369;-68
2022/09/20 11:37:08;;;;;;;1.13;1.13;;;16.50;93.20;;;;;;6222471;23;20845;-66
2022/09/20 11:39:53;;;;;;;5.23;1.20;;;16.80;93.40;;;;;;6247049;23;20471;-67
2022/09/20 11:42:25;;;;;;;1.10;0.80;;;17.10;93.30;;;;;;6247775;23;20140;-68
2022/09/20 11:44:52;;;;;;;0.77;0.77;;;17.50;93.00;;;;;;6247033;22;20366;-66
2022/09/20 11:47:34;;;;;;;3.37;1.10;;;18.00;91.70;;;;;;6220123;23;20467;-66
2022/09/20 11:50:25;;;;;;;3.37;1.10;;;18.30;91.10;;;;;;6247135;23;20886;-67
2022/09/20 11:53:12;;;;;;;0.70;0.70;;;18.50;90.10;;;;;;6246780;23;20364;-66
2022/09/20 11:56:10;;;;;;;10.07;1.03;;;18.60;88.40;;;;;;6247346;23;20740;-66
2022/09/20 11:58:58;;;;;;;2.60;1.10;;;18.70;89.10;;;;;;6246926;23;20388;-68
2022/09/20 12:01:28;;;;;;;1.63;0.73;;;18.80;89.00;;;;;;6246956;23;20333;-68
2022/09/20 12:04:02;;;;;;;1.10;0.70;;;18.80;88.20;;;;;;6245935;22;20397;-67
2022/09/20 12:06:37;;;;;;;2.20;0.70;;;18.70;88.60;;;;;;6247205;23;20370;-66
2022/09/20 12:09:31;;;;;;;4.77;2.30;;;18.50;87.00;;;;;;6247527;23;20331;-66
2022/09/20 12:11:58;;;;;;;1.47;1.33;;;18.30;88.60;;;;;;6247452;23;20379;-68
2022/09/20 12:14:30;;;;;;;2.97;1.27;;;18.00;88.80;;;;;;6246663;22;20366;-66
2022/09/20 12:16:56;;;;;;;1.70;1.17;;;17.90;88.80;;;;;;6246812;23;20439;-67
2022/09/20 12:19:31;;;;;;;2.50;0.77;;;17.80;90.40;;;;;;6246958;23;20573;-66
2022/09/20 12:22:00;;;;;;;1.30;1.20;;;17.50;90.10;;;;;;6220125;23;20152;-66
2022/09/20 12:24:34;;;;;;;1.33;0.87;;;17.40;90.20;;;;;;6246790;22;20392;-66
2022/09/20 12:27:00;;;;;;;1.03;1.03;;;17.30;90.40;;;;;;6246890;23;20372;-65
2022/09/20 12:29:28;;;;;;;1.80;1.10;;;17.30;90.70;;;;;;6246723;23;20479;-64
2022/09/20 12:31:56;;;;;;;0.73;0.73;;;17.30;89.10;;;;;;6246886;23;20393;-65
2022/09/20 12:34:24;;;;;;;2.97;1.10;;;17.10;89.70;;;;;;6246188;22;20398;-67
2022/09/20 12:36:53;;;;;;;2.30;1.00;;;17.10;91.00;;;;;;6246591;23;20345;-64
2022/09/20 12:39:31;;;;;;;2.80;1.30;;;17.20;91.30;;;;;;6246623;23;20410;-64
2022/09/20 12:42:04;;;;;;;1.47;1.37;;;17.30;91.00;;;;;;6246092;23;20330;-65
2022/09/20 12:44:36;;;;;;;2.00;1.63;;;17.50;89.90;;;;;;6245732;22;20398;-64
2022/09/20 12:47:05;;;;;;;1.03;0.90;;;17.60;90.30;;;;;;6246354;23;20404;-67
2022/09/20 12:52:55;;;;;;;1.27;0.93;;;17.70;90.00;;;;;;6243517;23;20364;-66
2022/09/20 12:55:32;;;;;;;1.77;1.00;;;17.80;90.30;;;;;;6243778;22;20398;-67
2022/09/20 12:58:21;;;;;;;0.77;0.63;;;17.90;88.60;;;;;;6243710;23;20776;-66
2022/09/20 13:00:56;;;;;;;2.50;1.30;;;18.00;86.60;;;;;;6243768;23;20368;-65
2022/09/20 13:03:35;;;;;;;3.17;1.13;;;18.00;88.30;;;;;;6243569;22;20334;-67
2022/09/20 13:06:07;;;;;;;1.00;0.90;;;18.00;89.00;;;;;;6245375;23;20394;-64
2022/09/20 13:09:03;;;;;;;0.93;0.77;;;17.90;88.20;;;;;;6246105;23;20771;-65
2022/09/20 13:11:40;;;;;;;1.80;1.10;;;18.00;88.00;;;;;;6246268;23;20435;-64
2022/09/20 13:14:30;;;;;;;1.83;1.30;;;17.90;88.40;;;;;;6246126;22;20370;-65
2022/09/20 13:17:14;;;;;;;3.20;0.97;;;17.70;89.80;;;;;;6205139;23;20386;-66
2022/09/20 13:19:43;;;;;;;2.53;1.20;;;17.50;89.20;;;;;;6219249;23;20829;-65
2022/09/20 13:22:35;;;;;;;2.03;1.13;;;17.40;90.00;;;;;;6246648;23;20749;-65
2022/09/20 13:25:05;;;;;;;1.10;1.00;;;17.40;90.40;;;;;;6246508;22;20388;-68
2022/09/20 13:27:38;;;;;;;1.00;1.00;;;17.40;90.70;;;;;;6246426;23;20375;-64
2022/09/20 13:30:20;;;;;;;1.87;1.43;;;17.40;90.10;;;;;;6246104;23;20360;-64
2022/09/20 13:32:47;;;;;;;0.87;0.73;;;17.20;90.30;;;;;;6245336;23;20966;-64
2022/09/20 13:35:18;;;;;;;2.10;1.20;;;17.00;90.50;;;;;;6245876;22;20441;-64
2022/09/20 13:38:13;;;;;;;1.60;1.10;;;16.90;90.50;;;;;;6246334;23;20345;-64
2022/09/20 13:40:41;;;;;;;3.33;1.17;;;16.80;90.70;;;;;;6219507;23;20390;-65
2022/09/20 13:43:26;;;;;;;1.13;0.90;;;16.60;91.10;;;;;;6246030;22;20438;-66
2022/09/20 13:45:56;;;;;;;1.40;1.33;;;16.40;91.50;;;;;;6246298;23;20359;-65
2022/09/20 13:48:26;;;;;;;1.40;1.30;;;16.30;91.70;;;;;;6246545;23;20730;-65
2022/09/20 13:50:52;;;;;;;7.43;1.20;;;16.20;91.00;;;;;;6246063;23;20339;-64
2022/09/20 13:53:18;;;;;;;1.47;1.10;;;16.10;90.90;;;;;;6245455;22;20396;-62
2022/09/20 13:55:44;;;;;;;2.53;1.30;;;16.00;91.40;;;;;;6246076;23;20335;-64
2022/09/20 13:58:31;;;;;;;3.93;1.90;;;16.00;91.20;;;;;;6246242;23;20771;-66
2022/09/20 14:01:02;;;;;;;4.93;1.90;;;15.90;91.30;;;;;;6245790;23;20372;-66
2022/09/20 14:03:31;;;;;;;1.03;1.03;;;15.90;91.60;;;;;;6245477;22;20361;-66
2022/09/20 14:06:06;;;;;;;1.60;1.50;;;15.80;91.60;;;;;;6246068;23;20392;-65
2022/09/20 14:08:34;;;;;;;2.70;1.20;;;15.80;92.00;;;;;;6246126;23;20331;-66
2022/09/20 14:11:07;;;;;;;4.53;1.73;;;15.80;92.30;;;;;;6246150;23;20347;-65
2022/09/20 14:13:39;;;;;;;5.73;1.27;;;15.90;93.10;;;;;;6245800;22;20395;-65
2022/09/20 14:16:07;;;;;;;2.17;1.20;;;15.90;91.30;;;;;;6245756;23;20357;-64
2022/09/20 14:18:34;;;;;;;4.10;1.60;;;15.90;91.50;;;;;;6245752;23;20416;-65
2022/09/20 14:21:01;;;;;;;7.40;1.60;;;15.90;91.60;;;;;;6218788;23;20829;-64
2022/09/20 14:23:28;;;;;;;0.90;0.90;;;15.90;92.10;;;;;;6245293;22;20955;-64
2022/09/20 14:26:15;;;;;;;4.50;1.40;;;15.90;92.20;;;;;;6245917;23;20383;-65
2022/09/20 14:28:41;;;;;;;2.70;1.60;;;15.80;93.70;;;;;;6246308;23;20386;-63
2022/09/20 14:31:14;;;;;;;2.77;2.00;;;15.50;94.60;;;;;;6245281;23;20346;-63
2022/09/20 14:33:44;;;;;;;1.10;1.00;;;15.30;95.20;;;;;;6245541;22;20395;-63
2022/09/20 14:36:15;;;;;;;1.93;1.10;;;15.10;95.70;;;;;;6245405;23;20341;-65
2022/09/20 14:38:47;;;;;;;4.43;1.43;;;15.00;96.30;;;;;;6245442;23;20426;-64
2022/09/20 14:41:13;;;;;;;4.40;1.80;;;14.90;96.60;;;;;;6219243;23;20851;-65
2022/09/20 14:43:41;;;;;;;4.20;1.33;;;14.90;97.00;;;;;;6218485;23;20399;-65
2022/09/20 14:46:16;;;;;;;2.87;1.50;;;14.90;97.30;;;;;;6245374;23;20346;-66
2022/09/20 14:48:44;;;;;;;1.60;1.50;;;14.90;97.60;;;;;;6245581;23;20346;-66
2022/09/20 14:51:16;;;;;;;1.73;1.63;;;14.90;97.70;;;;;;6245462;23;20374;-66
2022/09/20 14:54:03;;;;;;;0.90;0.90;;;14.90;96.50;;;;;;6245137;22;20362;-66
2022/09/20 14:56:40;;;;;;;6.47;4.63;;;14.90;96.10;;;;;;6243247;23;20359;-65
2022/09/20 14:59:19;;;;;;;1.93;1.53;;;14.90;96.20;;;;;;6245400;23;20403;-65
2022/09/20 15:01:54;;;;;;;2.27;1.40;;;14.90;96.20;;;;;;6246344;23;20723;-66
2022/09/20 15:04:22;;;;;;;1.30;1.20;;;14.90;96.30;;;;;;6219356;23;20399;-65
2022/09/20 15:06:51;;;;;;;3.70;1.47;;;14.90;95.70;;;;;;6246980;22;20459;-66
2022/09/20 15:09:19;;;;;;;1.27;1.17;;;15.00;95.30;;;;;;6247485;22;20380;-65
2022/09/20 15:11:45;;;;;;;3.23;1.10;;;15.00;94.90;;;;;;6247528;22;20803;-67
2022/09/20 15:14:11;;;;;;;1.13;1.10;;;15.00;94.50;;;;;;6246879;22;20701;-64
2022/09/20 15:16:36;;;;;;;1.00;1.00;;;15.00;94.20;;;;;;6245932;23;20383;-66
2022/09/20 15:19:04;;;;;;;1.20;1.20;;;15.10;94.40;;;;;;6247801;23;20177;-66
2022/09/20 15:21:31;;;;;;;1.33;1.27;;;15.20;94.60;;;;;;6247620;22;20148;-65
2022/09/20 15:23:56;;;;;;;1.90;1.13;;;15.20;94.50;;;;;;6247040;22;20851;-65
2022/09/20 15:26:22;;;;;;;1.37;1.27;;;15.30;94.50;;;;;;6247567;23;20380;-67
2022/09/20 15:28:48;;;;;;;1.50;1.30;;;15.40;94.20;;;;;;6247186;23;20153;-68
2022/09/20 15:31:15;;;;;;;1.97;1.40;;;15.40;94.50;;;;;;6247550;23;20145;-66
2022/09/20 15:33:41;;;;;;;2.20;1.53;;;15.30;94.30;;;;;;6247257;22;20392;-67
2022/09/20 15:36:07;;;;;;;1.90;1.60;;;15.30;94.20;;;;;;6247211;23;20453;-66
2022/09/20 15:38:33;;;;;;;1.00;1.00;;;15.20;93.10;;;;;;6247258;22;20172;-66
2022/09/20 15:41:02;;;;;;;1.27;1.27;;;15.20;93.30;;;;;;6247318;22;20223;-66
2022/09/20 15:43:29;;;;;;;1.40;1.30;;;15.20;93.40;;;;;;6246484;22;20701;-66
2022/09/20 15:46:04;;;;;;;1.50;1.30;;;15.10;93.70;;;;;;6247754;22;20662;-66
2022/09/20 15:48:30;;;;;;;1.60;1.50;;;15.00;93.90;;;;;;6247121;22;20370;-67
2022/09/20 15:51:01;;;;;;;1.97;1.87;;;14.90;93.90;;;;;;6247120;23;20372;-66
2022/09/20 15:53:33;;;;;;;1.37;1.27;;;14.80;94.10;;;;;;6246759;22;20922;-67
2022/09/20 15:56:00;;;;;;;1.10;1.10;;;14.80;94.20;;;;;;6247238;22;20429;-66
2022/09/20 15:58:32;;;;;;;1.30;1.20;;;14.70;93.80;;;;;;6247071;22;20400;-66
2022/09/20 16:01:07;;;;;;;1.30;1.20;;;14.60;93.90;;;;;;6247185;22;20334;-65
2022/09/20 16:03:34;;;;;;;1.67;1.30;;;14.50;94.30;;;;;;6244869;22;20400;-66
2022/09/20 16:06:03;;;;;;;3.40;1.17;;;14.40;94.50;;;;;;6247019;22;20480;-67
2022/09/20 16:08:37;;;;;;;1.37;1.07;;;14.40;94.50;;;;;;6246914;23;20377;-64
2022/09/20 16:11:04;;;;;;;1.13;1.03;;;14.30;94.30;;;;;;6246353;23;20349;-64
2022/09/20 16:13:30;;;;;;;1.10;1.00;;;14.20;93.50;;;;;;6245847;22;20365;-64
2022/09/20 16:15:57;;;;;;;1.10;1.10;;;14.10;93.40;;;;;;6246846;23;20425;-64
2022/09/20 16:21:11;;;;;;;3.17;2.47;;;14.10;93.90;;;;;;6246671;23;20362;-66
2022/09/20 16:23:40;;;;;;;1.13;1.13;;;14.00;93.70;;;;;;6245855;22;20469;-64
2022/09/20 16:26:11;;;;;;;1.63;1.10;;;14.00;93.70;;;;;;6247225;23;20370;-64
2022/09/20 16:28:40;;;;;;;1.97;1.23;;;13.90;93.50;;;;;;6246807;23;20913;-64
2022/09/20 16:31:26;;;;;;;1.10;1.10;;;13.90;93.40;;;;;;6246634;23;20403;-64
2022/09/20 16:33:52;;;;;;;1.37;0.90;;;13.80;93.60;;;;;;6223672;23;20405;-65
2022/09/20 16:36:18;;;;;;;1.73;1.30;;;13.70;93.50;;;;;;6246664;23;20370;-65
2022/09/20 16:38:44;;;;;;;0.97;0.97;;;13.70;93.60;;;;;;6246379;23;20174;-64
2022/09/20 16:41:10;;;;;;;1.43;1.33;;;13.60;93.70;;;;;;6247057;23;20454;-64
2022/09/20 16:43:36;;;;;;;1.20;1.10;;;13.60;94.00;;;;;;6246250;22;20361;-64
2022/09/20 16:46:03;;;;;;;1.23;1.13;;;13.50;94.20;;;;;;6219428;23;20385;-64
2022/09/20 16:48:30;;;;;;;0.90;0.90;;;13.40;94.20;;;;;;6246624;23;20349;-64
2022/09/20 16:50:57;;;;;;;1.57;0.90;;;13.30;94.40;;;;;;6246155;23;20352;-65
2022/09/20 16:53:25;;;;;;;1.97;1.40;;;13.20;94.60;;;;;;6246380;22;20342;-63
2022/09/20 16:55:51;;;;;;;0.90;0.90;;;13.20;94.90;;;;;;6246412;23;20373;-67
2022/09/20 16:58:16;;;;;;;1.67;1.47;;;13.10;95.10;;;;;;6246879;23;20971;-65
2022/09/20 17:00:42;;;;;;;1.17;1.13;;;13.00;95.30;;;;;;6245875;23;20599;-68
2022/09/20 17:03:08;;;;;;;1.10;1.00;;;12.90;95.60;;;;;;6245680;22;20178;-67
2022/09/20 17:05:33;;;;;;;1.30;1.20;;;12.90;96.00;;;;;;6245767;23;20174;-66
2022/09/20 17:08:00;;;;;;;1.80;1.30;;;12.80;96.30;;;;;;6246613;23;20148;-67
2022/09/20 17:10:27;;;;;;;1.20;1.10;;;12.70;96.70;;;;;;6245938;23;20147;-67
2022/09/20 17:12:56;;;;;;;1.07;1.07;;;12.60;97.40;;;;;;6246178;23;20348;-64
2022/09/20 17:15:22;;;;;;;1.13;0.97;;;12.60;98.10;;;;;;6246084;22;20764;-65
2022/09/20 17:17:48;;;;;;;0.97;0.97;;;12.50;98.80;;;;;;6246740;23;20345;-66
2022/09/20 17:20:14;;;;;;;1.88;1.02;;;12.50;98.80;;;;;;6246386;23;20435;-66
2022/09/20 17:22:41;;;;;;;3.30;1.57;;;12.40;98.90;;;;;;6246018;23;20233;-65
2022/09/20 17:25:07;;;;;;;5.80;3.80;;;12.40;99.30;;;;;;6246178;22;20178;-67
2022/09/20 17:27:37;;;;;;;8.77;5.78;;;12.30;99.60;;;;;;6246400;23;20399;-68
2022/09/20 17:30:03;;;;;;;29.63;16.03;;;12.30;99.90;;;;;;6245880;23;20236;-67
2022/09/20 17:32:29;;;;;;;10.23;8.50;;;12.20;99.90;;;;;;6245696;23;20383;-67
2022/09/20 17:34:54;;;;;;;4.93;3.97;;;12.30;99.90;;;;;;6219136;23;20452;-67
2022/09/20 17:37:20;;;;;;;2.13;1.93;;;12.20;99.90;;;;;;6246018;23;20147;-69
2022/09/20 17:39:46;;;;;;;1.77;1.48;;;12.10;99.90;;;;;;6246239;23;20180;-68
2022/09/20 17:42:11;;;;;;;1.93;1.50;;;12.10;99.90;;;;;;6245772;23;20153;-68
2022/09/20 17:44:37;;;;;;;2.70;1.87;;;12.10;99.90;;;;;;6245394;22;20165;-67